Airfield :
LOGIN :

Register | Disclaimer

   EN    FR    IT 

 










Legend :    VFR   Marginal VFR   IFR   Intensive IFR   Very Intensive IFR
Visi :
Ceiling :
>= 8 km
>= 3000ft
5 to 8 km
1000 to 3000 ft
1500m to 5 km
500 to 1000 ft
800 to 1500m
200 to 500 ft
< 800m
< 200 ft
Symbols :   Thunderstorms  Fog  Heavy snow  Heavy precipitations  Wind > 20 kt
SIGMETs :     Misc.  Thunderstorms  Icing  Turbulence  Mountain Waves  Volcanic Ashes






- Airport Elevation : 36 ft
- IATA code : LTQ


LFAT - Le Touquet

CURRENT METAR :
  • 152330Z AUTO 23007KT 190V260 9999 SCT028 BKN033 BKN043 14/11 Q1008

EXPIRED METARs :
  • 152300Z AUTO 25008KT 220V280 9999 SCT029/// BKN034/// BKN066/// ///TCU 14/10 Q1008
  • 152230Z AUTO 26007KT 9999 BKN025/// BKN034/// BKN049/// ///TCU 14/11 Q1008
  • 152200Z AUTO 26009KT 230V290 9999 -RA FEW017/// SCT060/// OVC070/// ///TCU 14/12 Q1008
  • 152130Z AUTO 21006G22KT 170V270 9999 +RA SCT020/// SCT026/// BKN037/// ///TCU 13/11 Q1008
  • 152100Z AUTO 23004KT 200V260 9999 BKN021/// BKN028/// BKN045/// ///TCU 13/11 Q1008

Expired Forecast.
ATIS : +33 3 21 06 62 84



MET'MAP, your aeronautical weather chart ! - Copyright ORBIFLY December 2007 - Disclaimer

ORBIFLY MET'MAP TEAM :

Programming & Development : Alexandra Zaïnal
Concept & Development : Baudouin d'Aumeries
Co-Development & Prog : Marc-Olivier Méhu
Technical & hardware support : Manuel Goepfert

Contact : metmap@orbifly.com




SOURCES & CREDITS :

   NOAA